Terminal Aerodrome Forecast
Issued by NWS

Home | Current Version | Previous Version | Graphics & Text | Print | Product List | Glossary On
Versions: 1 2 3 4 5 6 7 8 9 10 11 12 13 14 15 16 17 18 19 20 21
000
FTUS43 KMPX 220700 AAA
TAFAXN
TAF AMD
KAXN 220704Z 2207/2306 00000KT 5SM BR OVC006
     FM220900 00000KT 3/4SM BR OVC003
     FM221400 01005KT P6SM OVC005
     FM221700 36005KT P6SM BKN015
     FM221900 03005KT P6SM SCT150=

USA.gov is the U.S. government's official web portal to all federal, state and local government web resources and services.